Time;durP1;ratioP1;P1;durP2;ratioP2;P2;SDS_P1;SDS_P2;PMS_P1;PMS_P2;Temp;Humidity;BMP_temperature;BMP_pressure;BME280_temperature;BME280_humidity;BME280_pressure;Samples;Min_cycle;Max_cycle;Signal;HPM_P1;HPM_P2
2020/12/24 00:01:58;;;;;;;68.07;28.83;;;4.80;99.90;;;;;;4993579;28;20180;-89
2020/12/24 00:04:24;;;;;;;67.30;29.60;;;5.30;99.90;;;;;;4993367;28;20192;-89
2020/12/24 00:06:49;;;;;;;75.87;32.50;;;4.80;99.90;;;;;;4977597;28;20211;-88
2020/12/24 00:09:15;;;;;;;107.53;53.50;;;4.90;99.90;;;;;;4977061;28;20211;-89
2020/12/24 00:11:42;;;;;;;179.60;80.10;;;4.70;99.90;;;;;;4993707;28;20191;-89
2020/12/24 00:14:07;;;;;;;158.20;61.57;;;4.80;99.90;;;;;;4993863;28;20192;-88
2020/12/24 00:16:33;;;;;;;64.50;31.13;;;4.70;99.90;;;;;;4977380;28;20189;-89
2020/12/24 00:18:59;;;;;;;88.63;38.93;;;4.90;99.90;;;;;;4994526;28;20256;-90
2020/12/24 00:21:24;;;;;;;90.07;40.60;;;4.70;99.90;;;;;;4993190;28;20181;-90
2020/12/24 00:23:50;;;;;;;64.97;30.70;;;5.50;99.90;;;;;;4993369;28;20192;-91
2020/12/24 00:26:16;;;;;;;70.67;34.17;;;4.70;99.90;;;;;;4992871;28;20666;-90
2020/12/24 00:28:41;;;;;;;52.77;26.77;;;5.20;99.90;;;;;;4977239;28;20264;-90
2020/12/24 00:31:08;;;;;;;66.77;29.20;;;4.60;99.90;;;;;;4992487;28;20180;-91
2020/12/24 00:33:34;;;;;;;53.57;26.07;;;4.70;99.90;;;;;;4993473;28;20269;-90
2020/12/24 00:36:00;;;;;;;46.00;23.90;;;5.00;99.90;;;;;;4993323;28;20208;-91
2020/12/24 00:38:28;;;;;;;43.30;22.07;;;4.60;99.90;;;;;;4976384;28;20274;-90
2020/12/24 00:40:54;;;;;;;49.03;24.30;;;4.60;99.90;;;;;;4976881;28;20187;-91
2020/12/24 00:43:20;;;;;;;47.83;24.33;;;4.80;99.90;;;;;;4992817;28;20186;-91
2020/12/24 00:45:46;;;;;;;43.63;20.73;;;5.00;99.90;;;;;;4993083;28;20312;-91
2020/12/24 00:48:11;;;;;;;60.53;24.07;;;4.60;99.90;;;;;;4993072;28;20264;-91
2020/12/24 00:50:37;;;;;;;53.47;23.83;;;4.60;99.90;;;;;;4994641;28;20181;-90
2020/12/24 00:53:03;;;;;;;52.73;25.10;;;4.60;99.90;;;;;;4993421;28;20201;-90
2020/12/24 00:55:34;;;;;;;47.43;23.30;;;4.70;99.90;;;;;;4993570;28;20288;-89
2020/12/24 00:57:59;;;;;;;43.13;22.10;;;4.90;99.90;;;;;;5003114;28;20234;-88
2020/12/24 01:00:25;;;;;;;46.00;21.60;;;4.70;99.90;;;;;;5003373;28;20252;-89
2020/12/24 01:02:52;;;;;;;46.07;23.20;;;4.60;99.90;;;;;;5005762;28;20195;-89
2020/12/24 01:05:18;;;;;;;39.83;20.70;;;4.50;99.90;;;;;;5006831;28;20215;-90
2020/12/24 01:07:44;;;;;;;37.60;19.87;;;5.30;99.90;;;;;;4994324;28;20713;-91
2020/12/24 01:10:11;;;;;;;38.33;19.17;;;4.50;99.90;;;;;;4976345;28;20276;-90
2020/12/24 01:12:37;;;;;;;36.63;20.00;;;4.70;99.90;;;;;;5002131;28;20236;-90
2020/12/24 01:15:07;;;;;;;30.60;18.13;;;4.60;99.90;;;;;;5003702;28;20197;-89
2020/12/24 01:17:33;;;;;;;32.27;16.77;;;4.70;99.90;;;;;;5003566;28;20248;-89
2020/12/24 01:19:59;;;;;;;39.80;21.00;;;4.70;99.90;;;;;;4996769;28;20626;-91
2020/12/24 01:22:24;;;;;;;32.10;17.83;;;4.50;99.90;;;;;;4991976;28;20185;-92
2020/12/24 01:24:52;;;;;;;30.13;17.50;;;4.60;99.90;;;;;;4975748;28;20196;-91
2020/12/24 01:27:18;;;;;;;37.73;21.70;;;4.50;99.90;;;;;;4991512;28;20719;-89
2020/12/24 01:29:44;;;;;;;40.23;22.90;;;4.50;99.90;;;;;;4992560;28;20316;-90
2020/12/24 01:32:10;;;;;;;33.93;18.20;;;4.50;99.90;;;;;;4944469;28;20581;-89
2020/12/24 01:34:35;;;;;;;31.77;17.33;;;4.60;99.90;;;;;;4960110;28;20199;-89
2020/12/24 01:37:02;;;;;;;31.23;15.60;;;4.60;99.90;;;;;;4976265;28;20185;-90
2020/12/24 01:39:28;;;;;;;23.23;13.50;;;4.60;99.90;;;;;;4991634;28;20241;-90
2020/12/24 01:41:54;;;;;;;21.10;12.00;;;4.80;99.90;;;;;;4992201;28;20189;-90
2020/12/24 01:44:19;;;;;;;27.03;12.50;;;4.80;99.90;;;;;;4991719;28;20180;-91
2020/12/24 01:46:47;;;;;;;27.20;12.70;;;4.60;99.90;;;;;;4992422;28;20220;-90
2020/12/24 01:49:13;;;;;;;23.33;14.27;;;4.60;99.90;;;;;;4976106;28;20201;-90
2020/12/24 01:51:45;;;;;;;18.10;11.07;;;4.60;99.90;;;;;;4991784;28;20530;-88
2020/12/24 01:54:11;;;;;;;21.03;11.37;;;4.60;99.90;;;;;;4992267;28;20181;-91
2020/12/24 01:56:37;;;;;;;19.03;10.83;;;4.60;99.90;;;;;;4991221;28;20189;-90
2020/12/24 01:59:02;;;;;;;17.27;10.40;;;5.00;99.90;;;;;;4993410;28;20181;-90
2020/12/24 02:01:28;;;;;;;18.60;11.17;;;4.70;99.90;;;;;;4991795;28;20201;-89
2020/12/24 02:03:54;;;;;;;18.40;10.90;;;5.40;99.90;;;;;;4993314;28;20178;-90
2020/12/24 02:06:19;;;;;;;21.07;10.77;;;4.80;99.90;;;;;;4991009;28;20708;-88
2020/12/24 02:08:45;;;;;;;21.53;11.10;;;4.80;99.90;;;;;;4975827;28;20181;-89
2020/12/24 02:11:11;;;;;;;19.63;11.67;;;4.50;99.90;;;;;;4991716;28;20187;-89
2020/12/24 02:13:37;;;;;;;18.77;12.40;;;5.50;99.90;;;;;;4991815;28;20192;-88
2020/12/24 02:16:03;;;;;;;21.17;11.17;;;4.60;99.90;;;;;;4992176;28;20206;-89
2020/12/24 02:18:28;;;;;;;18.37;10.47;;;4.60;99.90;;;;;;4991889;28;20628;-90
2020/12/24 02:20:54;;;;;;;21.93;12.97;;;4.80;99.90;;;;;;4993134;28;20184;-90
2020/12/24 02:23:20;;;;;;;28.57;15.40;;;4.90;99.90;;;;;;4991888;28;20180;-89
2020/12/24 02:25:45;;;;;;;31.37;16.57;;;4.70;99.90;;;;;;4991509;28;20224;-88
2020/12/24 02:28:11;;;;;;;32.57;14.93;;;4.70;99.90;;;;;;4993173;28;20577;-88
2020/12/24 02:30:38;;;;;;;19.70;11.77;;;4.60;99.90;;;;;;4991374;28;20192;-89
2020/12/24 02:33:04;;;;;;;26.67;14.13;;;4.60;99.90;;;;;;4991890;28;20220;-89
2020/12/24 02:35:33;;;;;;;19.77;11.30;;;4.70;99.90;;;;;;4975412;28;20189;-90
2020/12/24 02:37:59;;;;;;;19.30;11.43;;;4.60;99.90;;;;;;4978018;28;20304;-89
2020/12/24 02:40:25;;;;;;;17.30;10.27;;;4.80;99.90;;;;;;4994759;28;20193;-89
2020/12/24 02:42:50;;;;;;;18.83;11.30;;;4.70;99.90;;;;;;4995320;28;20252;-90
2020/12/24 02:45:16;;;;;;;14.50;9.20;;;5.00;99.90;;;;;;4978757;28;20254;-90
2020/12/24 02:47:42;;;;;;;17.03;9.70;;;4.90;99.90;;;;;;4978592;28;20186;-89
2020/12/24 02:50:09;;;;;;;20.87;11.50;;;4.70;99.90;;;;;;4979038;28;20235;-89
2020/12/24 02:52:35;;;;;;;20.93;11.83;;;5.20;99.90;;;;;;4994737;28;20268;-90
2020/12/24 02:55:06;;;;;;;20.07;11.93;;;3.50;99.90;;;;;;4979152;28;20185;-90
2020/12/24 02:57:32;;;;;;;23.03;11.57;;;4.70;99.90;;;;;;4994799;28;20180;-89
2020/12/24 03:00:02;;;;;;;27.37;14.13;;;4.70;99.90;;;;;;4994966;28;20181;-90
2020/12/24 03:02:28;;;;;;;21.57;12.00;;;4.80;99.90;;;;;;4978514;28;20322;-88
2020/12/24 03:04:53;;;;;;;27.27;13.53;;;4.90;99.90;;;;;;4996012;28;20268;-88
2020/12/24 03:07:19;;;;;;;18.63;10.30;;;5.00;99.90;;;;;;4978543;28;20227;-89
2020/12/24 03:09:45;;;;;;;19.53;11.53;;;4.80;99.90;;;;;;4978398;28;20622;-88
2020/12/24 03:12:11;;;;;;;14.53;9.17;;;4.80;99.90;;;;;;4994955;28;20208;-89
2020/12/24 03:14:37;;;;;;;14.97;10.50;;;4.90;99.90;;;;;;4994543;28;20268;-89
2020/12/24 03:17:03;;;;;;;18.77;9.93;;;4.80;99.90;;;;;;4978510;28;20236;-88
2020/12/24 03:19:28;;;;;;;13.17;9.03;;;4.80;99.90;;;;;;4978318;28;20286;-88
2020/12/24 03:21:54;;;;;;;12.73;8.37;;;5.20;99.90;;;;;;4978534;28;20178;-87
2020/12/24 03:24:20;;;;;;;15.13;8.20;;;4.80;99.90;;;;;;4978213;28;20186;-88
2020/12/24 03:26:45;;;;;;;16.30;8.87;;;4.80;99.90;;;;;;4978125;28;20268;-89
2020/12/24 03:29:11;;;;;;;21.50;13.27;;;4.90;99.90;;;;;;4962197;28;20239;-88
2020/12/24 03:31:37;;;;;;;15.10;10.03;;;4.90;99.90;;;;;;4977765;28;20192;-88
2020/12/24 03:34:02;;;;;;;15.50;10.40;;;4.80;99.90;;;;;;4995424;28;20185;-88
2020/12/24 03:36:28;;;;;;;17.43;11.60;;;4.80;99.90;;;;;;4994430;28;20188;-88
2020/12/24 03:38:54;;;;;;;15.83;9.33;;;4.80;99.90;;;;;;4977583;28;20682;-88
2020/12/24 03:41:19;;;;;;;14.37;8.93;;;4.80;99.90;;;;;;4994702;28;20510;-88
2020/12/24 03:43:45;;;;;;;19.37;12.60;;;4.80;99.90;;;;;;4995273;28;20653;-88
2020/12/24 03:46:11;;;;;;;18.43;12.70;;;4.80;99.90;;;;;;4946021;28;20225;-89
2020/12/24 03:48:37;;;;;;;15.07;9.27;;;4.80;99.90;;;;;;4960657;28;20236;-88
2020/12/24 03:51:02;;;;;;;16.90;8.27;;;5.00;99.90;;;;;;4994644;28;20634;-89
2020/12/24 03:53:28;;;;;;;12.13;8.60;;;4.80;99.90;;;;;;4993637;28;20587;-89
2020/12/24 03:55:53;;;;;;;17.83;9.83;;;4.90;99.90;;;;;;4993617;28;20182;-89
2020/12/24 03:58:19;;;;;;;11.53;7.70;;;5.50;99.90;;;;;;4993789;28;20637;-89
2020/12/24 04:00:45;;;;;;;15.83;8.63;;;5.30;99.90;;;;;;4994829;28;20188;-88
2020/12/24 04:03:10;;;;;;;13.90;9.60;;;4.80;99.90;;;;;;4961374;28;20285;-88
2020/12/24 04:05:36;;;;;;;17.13;10.00;;;4.80;99.90;;;;;;4993297;28;20244;-88
2020/12/24 04:08:02;;;;;;;15.43;9.43;;;5.50;99.90;;;;;;4961640;28;20323;-88
2020/12/24 04:10:27;;;;;;;15.20;10.33;;;4.80;99.90;;;;;;4977546;28;20182;-88
2020/12/24 04:12:53;;;;;;;17.23;13.20;;;4.90;99.90;;;;;;4977203;28;20185;-88
2020/12/24 04:15:19;;;;;;;15.03;9.90;;;4.90;99.90;;;;;;4977304;28;20708;-88
2020/12/24 04:17:44;;;;;;;17.87;11.90;;;4.90;99.90;;;;;;4994690;28;20187;-89
2020/12/24 04:20:10;;;;;;;17.13;10.30;;;4.90;99.90;;;;;;4977373;28;20189;-90
2020/12/24 04:22:36;;;;;;;13.93;9.10;;;5.00;99.90;;;;;;4993513;28;20292;-90
2020/12/24 04:25:02;;;;;;;15.83;10.87;;;4.90;99.90;;;;;;4994539;28;20188;-91
2020/12/24 04:27:29;;;;;;;15.53;10.43;;;4.90;99.90;;;;;;4977248;28;20189;-91
2020/12/24 04:33:17;;;;;;;21.67;13.70;;;4.90;99.90;;;;;;5232061;23;20256;-89
2020/12/24 04:35:42;;;;;;;11.70;9.23;;;4.90;99.90;;;;;;4977702;28;20539;-87
2020/12/24 04:38:09;;;;;;;13.97;9.57;;;5.50;99.90;;;;;;4976996;28;20189;-90
2020/12/24 04:40:35;;;;;;;10.27;7.07;;;3.00;99.90;;;;;;4977412;28;20642;-90
2020/12/24 04:43:04;;;;;;;7.93;5.33;;;5.40;99.90;;;;;;4976987;28;20228;-88
2020/12/24 04:45:33;;;;;;;11.97;8.43;;;5.00;99.90;;;;;;4977251;28;20302;-90
2020/12/24 04:48:00;;;;;;;6.33;5.67;;;5.00;99.90;;;;;;4993877;28;20638;-90
2020/12/24 04:50:27;;;;;;;8.57;6.27;;;5.00;99.90;;;;;;4976965;28;20199;-88
2020/12/24 04:52:56;;;;;;;9.00;6.80;;;5.10;99.90;;;;;;4960673;28;20213;-89
2020/12/24 04:55:22;;;;;;;9.03;5.10;;;5.10;99.90;;;;;;4994186;28;20247;-90
2020/12/24 04:57:52;;;;;;;7.50;5.07;;;5.40;99.90;;;;;;4976564;28;20188;-90
2020/12/24 05:00:18;;;;;;;6.00;4.13;;;5.00;99.90;;;;;;4975967;28;20197;-90
2020/12/24 05:02:44;;;;;;;5.47;4.57;;;5.70;99.90;;;;;;4976625;28;20638;-89
2020/12/24 05:05:10;;;;;;;5.87;4.93;;;5.10;99.90;;;;;;4975918;28;20226;-90
2020/12/24 05:07:41;;;;;;;7.90;4.97;;;5.30;99.90;;;;;;4976266;28;20185;-90
2020/12/24 05:10:13;;;;;;;7.27;4.83;;;5.20;99.90;;;;;;4976344;28;20267;-90
2020/12/24 05:12:39;;;;;;;6.00;4.00;;;5.20;99.90;;;;;;4960618;28;20284;-90
2020/12/24 05:15:04;;;;;;;4.93;4.10;;;5.20;99.90;;;;;;4993880;28;20260;-90
2020/12/24 05:17:30;;;;;;;5.53;4.43;;;5.40;99.90;;;;;;4976286;28;20185;-91
2020/12/24 05:20:07;;;;;;;6.43;4.63;;;5.20;99.90;;;;;;4960845;28;20193;-90
2020/12/24 05:22:32;;;;;;;7.57;5.57;;;5.30;99.90;;;;;;4992841;28;20272;-89
2020/12/24 05:25:11;;;;;;;6.70;5.03;;;5.30;99.90;;;;;;4960219;28;20275;-89
2020/12/24 05:27:40;;;;;;;6.50;5.20;;;5.40;99.90;;;;;;4976556;28;20648;-89
2020/12/24 05:30:06;;;;;;;6.77;4.90;;;5.40;99.90;;;;;;4975901;28;20181;-90
2020/12/24 05:32:33;;;;;;;7.20;5.60;;;5.50;99.90;;;;;;4993905;28;20581;-90
2020/12/24 05:35:10;;;;;;;6.70;5.43;;;5.50;99.90;;;;;;4976728;28;20273;-91
2020/12/24 05:37:36;;;;;;;6.80;5.37;;;5.60;99.90;;;;;;4976338;28;20537;-90
2020/12/24 05:40:26;;;;;;;6.80;5.40;;;5.50;99.90;;;;;;4976262;28;20173;-91
2020/12/24 05:42:57;;;;;;;8.27;5.90;;;5.90;99.90;;;;;;4975867;28;20181;-90
2020/12/24 05:45:33;;;;;;;10.43;7.80;;;5.60;99.90;;;;;;4975783;28;20970;-94
2020/12/24 05:48:18;;;;;;;11.33;7.17;;;5.70;99.90;;;;;;4976210;28;20196;-91
2020/12/24 05:50:43;;;;;;;8.77;6.63;;;6.20;99.90;;;;;;4976173;28;20178;-89
2020/12/24 05:53:16;;;;;;;11.33;7.63;;;5.70;99.90;;;;;;4993416;28;20204;-90
2020/12/24 05:55:43;;;;;;;12.83;8.40;;;6.10;99.90;;;;;;4976278;28;20182;-91
2020/12/24 05:58:09;;;;;;;11.47;7.73;;;5.80;99.90;;;;;;4975737;28;20264;-90
2020/12/24 06:00:39;;;;;;;14.70;9.73;;;6.00;99.90;;;;;;4959960;28;20186;-90
2020/12/24 06:03:10;;;;;;;18.97;11.00;;;6.70;99.90;;;;;;4959704;28;20188;-90
2020/12/24 06:06:06;;;;;;;18.10;11.03;;;6.30;99.90;;;;;;4975719;28;20209;-90
2020/12/24 06:08:33;;;;;;;23.60;12.77;;;6.00;99.90;;;;;;4956370;28;20198;-91
2020/12/24 06:11:10;;;;;;;32.63;18.23;;;6.00;99.90;;;;;;4944125;28;20208;-90
2020/12/24 06:13:49;;;;;;;36.20;19.87;;;6.00;99.90;;;;;;4979721;28;20181;-90
2020/12/24 06:16:15;;;;;;;20.83;12.00;;;6.10;99.90;;;;;;4996612;28;20177;-90
2020/12/24 06:18:43;;;;;;;18.10;11.70;;;6.10;99.90;;;;;;4996700;28;20240;-90
2020/12/24 06:21:15;;;;;;;20.37;13.63;;;4.60;99.90;;;;;;4979505;28;20281;-90
2020/12/24 06:23:48;;;;;;;18.37;11.80;;;6.20;99.90;;;;;;4996793;28;20592;-90
2020/12/24 06:26:21;;;;;;;19.83;11.97;;;6.20;99.90;;;;;;4978831;28;20217;-90
2020/12/24 06:28:50;;;;;;;18.70;11.83;;;6.20;99.90;;;;;;4996374;28;20236;-90
2020/12/24 06:31:17;;;;;;;18.33;11.97;;;6.30;99.90;;;;;;4978951;28;20178;-90
2020/12/24 06:33:43;;;;;;;21.00;13.37;;;6.40;99.90;;;;;;4979045;28;20240;-90
2020/12/24 06:36:36;;;;;;;17.97;9.83;;;6.30;99.90;;;;;;4963304;28;20185;-89
2020/12/24 06:39:04;;;;;;;18.73;12.37;;;6.50;99.90;;;;;;4987184;28;20237;-92
2020/12/24 06:41:36;;;;;;;20.43;13.53;;;6.50;99.90;;;;;;4959750;28;20530;-91
2020/12/24 06:44:04;;;;;;;20.17;13.23;;;6.50;99.90;;;;;;4959778;28;20213;-92
2020/12/24 06:46:49;;;;;;;20.07;13.63;;;6.50;99.90;;;;;;4959580;28;20242;-90
2020/12/24 06:49:31;;;;;;;22.80;12.90;;;6.60;99.90;;;;;;4945968;28;20579;-90
2020/12/24 06:51:58;;;;;;;21.50;12.77;;;6.60;99.90;;;;;;4959833;28;20202;-89
2020/12/24 06:54:25;;;;;;;18.27;12.27;;;6.70;99.90;;;;;;4966716;28;20673;-87
2020/12/24 06:57:24;;;;;;;21.57;12.50;;;6.70;99.90;;;;;;4994781;28;20209;-88
2020/12/24 07:00:17;;;;;;;22.40;12.93;;;6.70;99.90;;;;;;4988168;28;20186;-88
2020/12/24 07:02:47;;;;;;;22.73;14.50;;;6.70;99.90;;;;;;4995060;28;20268;-87
2020/12/24 07:05:41;;;;;;;22.50;14.13;;;6.70;99.90;;;;;;4994993;28;20260;-87
2020/12/24 07:08:30;;;;;;;21.57;13.90;;;6.80;99.90;;;;;;4996329;28;20300;-88
2020/12/24 07:10:55;;;;;;;21.53;14.30;;;6.80;99.90;;;;;;4985612;28;20194;-87
2020/12/24 07:13:34;;;;;;;21.73;13.57;;;6.90;99.90;;;;;;4978160;28;20190;-86
2020/12/24 07:16:03;;;;;;;25.53;15.47;;;7.30;99.90;;;;;;4994736;28;20239;-86
2020/12/24 07:18:35;;;;;;;25.67;14.80;;;6.90;99.90;;;;;;4979494;28;20185;-87
2020/12/24 07:21:02;;;;;;;27.33;15.60;;;7.00;99.90;;;;;;4997850;28;20178;-88
2020/12/24 07:23:33;;;;;;;23.73;14.27;;;7.00;99.90;;;;;;4997957;28;20658;-92
2020/12/24 07:26:02;;;;;;;22.63;14.27;;;7.00;99.90;;;;;;4972925;28;20221;-89
2020/12/24 07:28:29;;;;;;;25.87;15.60;;;7.00;99.90;;;;;;4970492;28;20189;-89
2020/12/24 07:30:59;;;;;;;25.33;16.43;;;7.20;99.90;;;;;;4986990;28;20689;-89
2020/12/24 07:33:26;;;;;;;25.93;16.17;;;7.00;99.90;;;;;;4988848;28;20253;-83
2020/12/24 07:35:52;;;;;;;25.57;16.77;;;7.10;99.90;;;;;;4978237;28;20213;-83
2020/12/24 07:38:29;;;;;;;28.67;16.53;;;7.10;99.90;;;;;;4995719;28;20587;-83
2020/12/24 07:40:56;;;;;;;30.97;16.93;;;7.10;99.90;;;;;;4994170;28;20673;-83
2020/12/24 07:43:23;;;;;;;25.17;15.90;;;7.10;99.90;;;;;;4993118;28;20269;-83
2020/12/24 07:45:51;;;;;;;26.30;16.73;;;7.10;99.90;;;;;;4958328;28;20641;-88
2020/12/24 07:48:19;;;;;;;28.27;16.10;;;7.10;99.90;;;;;;4958812;28;20201;-86
2020/12/24 07:50:46;;;;;;;23.97;15.10;;;7.10;99.90;;;;;;4958545;28;20189;-86
2020/12/24 07:53:23;;;;;;;30.43;17.53;;;7.50;99.90;;;;;;4959095;28;20194;-86
2020/12/24 07:55:49;;;;;;;28.87;16.30;;;7.20;99.90;;;;;;4961054;28;20228;-85
2020/12/24 07:58:16;;;;;;;28.57;16.20;;;7.20;99.90;;;;;;4968608;28;20193;-87
2020/12/24 08:00:52;;;;;;;27.13;17.40;;;7.20;99.90;;;;;;4954304;28;20277;-88
2020/12/24 08:03:20;;;;;;;24.73;16.00;;;7.20;99.90;;;;;;4942978;28;20221;-88
2020/12/24 08:05:48;;;;;;;24.37;14.10;;;7.30;99.90;;;;;;4942799;28;20218;-88
2020/12/24 08:08:25;;;;;;;27.33;16.50;;;7.30;99.90;;;;;;4975756;28;20230;-89
2020/12/24 08:10:51;;;;;;;30.17;17.27;;;7.40;99.90;;;;;;4958251;28;20202;-87
2020/12/24 08:13:16;;;;;;;30.57;17.20;;;9.10;99.90;;;;;;4943553;28;20194;-90
2020/12/24 08:15:45;;;;;;;28.33;16.07;;;7.40;99.90;;;;;;4967313;28;20345;-89
2020/12/24 08:18:13;;;;;;;30.07;17.87;;;7.50;99.90;;;;;;4977439;28;20182;-90
2020/12/24 08:20:41;;;;;;;35.03;17.67;;;7.50;99.90;;;;;;4953033;28;20175;-92
2020/12/24 08:23:19;;;;;;;33.43;17.80;;;7.50;99.90;;;;;;4982547;28;20655;-90
2020/12/24 08:25:50;;;;;;;24.97;16.67;;;7.50;99.90;;;;;;4967454;28;20738;-89
2020/12/24 08:28:16;;;;;;;25.03;16.07;;;7.60;99.90;;;;;;4967627;28;20174;-89
2020/12/24 08:30:44;;;;;;;28.50;16.17;;;7.60;99.90;;;;;;4987402;28;20248;-89
2020/12/24 08:33:10;;;;;;;22.33;14.17;;;7.70;99.90;;;;;;4967265;28;20746;-88
2020/12/24 08:35:38;;;;;;;26.23;16.00;;;7.80;99.90;;;;;;4934064;28;20187;-89
2020/12/24 08:38:15;;;;;;;27.77;16.30;;;7.70;99.90;;;;;;4973746;28;20210;-88
2020/12/24 08:40:41;;;;;;;27.60;16.87;;;7.70;99.90;;;;;;4954348;28;20245;-87
2020/12/24 08:43:08;;;;;;;26.57;16.73;;;7.70;99.90;;;;;;4941256;28;20548;-87
2020/12/24 08:45:46;;;;;;;25.67;16.30;;;7.70;99.90;;;;;;4960969;28;20660;-88
2020/12/24 08:48:32;;;;;;;23.50;15.23;;;7.80;99.90;;;;;;4954553;28;20187;-90
2020/12/24 08:50:58;;;;;;;25.27;15.03;;;7.60;99.90;;;;;;4982471;28;20253;-86
2020/12/24 08:53:28;;;;;;;22.53;13.30;;;7.80;99.90;;;;;;4965483;28;20178;-91
2020/12/24 08:59:18;;;;;;;25.10;15.20;;;8.00;99.90;;;;;;4968649;28;20233;-91
2020/12/24 09:01:44;;;;;;;17.93;12.07;;;7.80;99.90;;;;;;4971349;28;20718;-88
2020/12/24 09:04:19;;;;;;;23.03;14.40;;;7.90;99.90;;;;;;4956419;28;20190;-93
2020/12/24 09:06:50;;;;;;;26.10;15.93;;;8.00;99.90;;;;;;4974347;28;20214;-93
2020/12/24 09:09:25;;;;;;;23.97;13.63;;;8.10;99.90;;;;;;4961126;28;20183;-89
2020/12/24 09:15:28;;;;;;;23.63;13.83;;;7.20;99.90;;;;;;4903615;28;20621;-91
2020/12/24 09:17:55;;;;;;;24.33;15.03;;;7.90;99.90;;;;;;4953906;29;20186;-89
2020/12/24 09:20:25;;;;;;;21.87;14.10;;;7.90;99.90;;;;;;4955778;29;20644;-90
2020/12/24 09:22:55;;;;;;;20.97;13.13;;;8.70;99.90;;;;;;4954218;29;20652;-91
2020/12/24 09:25:28;;;;;;;23.93;13.47;;;8.10;99.90;;;;;;4970103;28;20314;-90
2020/12/24 09:27:57;;;;;;;25.00;15.07;;;6.90;99.90;;;;;;4970148;28;20542;-91
2020/12/24 09:30:33;;;;;;;22.93;14.90;;;8.10;99.90;;;;;;4955618;28;20179;-91
2020/12/24 09:33:02;;;;;;;24.27;14.20;;;8.00;99.90;;;;;;4938207;29;20238;-90
2020/12/24 09:35:30;;;;;;;21.30;13.57;;;8.10;99.90;;;;;;4954270;29;20198;-89
2020/12/24 09:37:56;;;;;;;24.10;13.27;;;8.10;99.90;;;;;;4960475;28;20193;-85
2020/12/24 09:40:25;;;;;;;23.13;13.47;;;8.00;99.90;;;;;;4960623;28;20183;-89
2020/12/24 09:42:51;;;;;;;20.27;13.47;;;8.00;99.90;;;;;;4974452;28;20194;-91
2020/12/24 09:45:17;;;;;;;20.27;13.13;;;8.20;99.90;;;;;;4965497;28;20182;-89
2020/12/24 09:47:46;;;;;;;20.27;13.03;;;8.00;99.90;;;;;;4969575;28;20210;-87
2020/12/24 09:50:16;;;;;;;18.73;12.50;;;8.00;99.90;;;;;;4966050;28;20190;-90
2020/12/24 09:55:30;;;;;;;21.53;13.63;;;8.00;99.90;;;;;;4965307;28;20202;-91
2020/12/24 09:57:56;;;;;;;23.10;13.27;;;8.20;99.90;;;;;;4972749;28;20190;-93
2020/12/24 10:00:24;;;;;;;20.13;14.07;;;8.10;99.90;;;;;;4976949;28;20690;-89
2020/12/24 10:02:49;;;;;;;19.83;13.30;;;8.30;99.90;;;;;;4973201;28;20183;-90
2020/12/24 10:05:15;;;;;;;19.67;12.57;;;8.30;99.90;;;;;;4976979;28;20270;-91
2020/12/24 10:07:41;;;;;;;26.37;14.27;;;8.20;99.90;;;;;;4976134;28;20193;-92
2020/12/24 10:10:22;;;;;;;;;;;;;;;;;;;;;
2020/12/24 10:12:50;;;;;;;25.33;15.43;;;9.70;99.90;;;;;;4977811;28;20189;-90
2020/12/24 10:15:16;;;;;;;22.63;14.53;;;8.30;99.90;;;;;;4973752;28;20273;-91
2020/12/24 10:17:41;;;;;;;22.70;13.93;;;8.30;99.90;;;;;;4973345;28;20552;-94
2020/12/24 10:20:07;;;;;;;20.47;13.93;;;8.30;99.90;;;;;;4966696;28;20190;-91
2020/12/24 10:22:34;;;;;;;20.10;13.43;;;8.30;99.90;;;;;;4965811;28;20536;-89
2020/12/24 10:25:00;;;;;;;20.40;13.13;;;8.30;99.90;;;;;;4969906;28;20198;-91
2020/12/24 10:27:25;;;;;;;22.27;14.63;;;8.60;99.90;;;;;;4974199;28;20697;-89
2020/12/24 10:29:51;;;;;;;22.57;13.90;;;8.50;99.90;;;;;;4962383;28;20190;-89
2020/12/24 10:32:19;;;;;;;18.60;11.53;;;8.80;99.90;;;;;;4954681;29;20235;-88
2020/12/24 10:34:45;;;;;;;23.37;14.43;;;8.70;99.90;;;;;;4971038;28;20286;-91
2020/12/24 10:37:14;;;;;;;19.40;12.63;;;8.80;99.90;;;;;;4971625;28;20692;-92
2020/12/24 10:39:42;;;;;;;21.33;12.93;;;8.60;99.90;;;;;;4973135;28;20223;-93
2020/12/24 10:42:15;;;;;;;22.27;13.17;;;8.70;99.90;;;;;;4986770;28;20179;-91
2020/12/24 10:44:40;;;;;;;21.23;12.63;;;8.60;99.90;;;;;;4960671;28;20190;-89
2020/12/24 10:47:06;;;;;;;19.30;12.10;;;8.80;99.90;;;;;;4964748;28;20610;-89
2020/12/24 10:49:32;;;;;;;20.20;11.93;;;8.60;99.90;;;;;;4953236;28;20187;-88
2020/12/24 10:51:57;;;;;;;20.87;12.20;;;8.70;99.90;;;;;;4959492;28;20191;-89
2020/12/24 10:54:23;;;;;;;20.43;12.97;;;8.90;99.90;;;;;;4975673;28;20183;-87
2020/12/24 10:56:50;;;;;;;20.70;12.87;;;8.60;99.90;;;;;;4991694;28;20273;-89
2020/12/24 10:59:16;;;;;;;22.93;12.30;;;8.80;99.90;;;;;;4976196;28;20640;-89
2020/12/24 11:01:48;;;;;;;23.33;13.23;;;8.60;99.90;;;;;;4975315;28;20182;-88
2020/12/24 11:04:15;;;;;;;20.37;13.13;;;8.60;99.90;;;;;;4958729;28;20187;-89
2020/12/24 11:06:42;;;;;;;22.20;13.23;;;8.60;99.90;;;;;;4959124;28;20229;-89
2020/12/24 11:09:09;;;;;;;23.20;12.37;;;8.60;99.90;;;;;;4959776;28;20270;-89
2020/12/24 11:11:35;;;;;;;22.23;13.03;;;8.70;99.90;;;;;;4975602;28;20174;-89
2020/12/24 11:14:01;;;;;;;22.40;12.53;;;8.80;99.90;;;;;;4959397;28;20632;-90
2020/12/24 11:16:27;;;;;;;21.40;12.33;;;8.60;99.90;;;;;;4959478;28;20261;-90
2020/12/24 11:18:53;;;;;;;21.27;13.77;;;8.60;99.90;;;;;;4975302;28;20175;-89
2020/12/24 11:21:24;;;;;;;21.87;12.87;;;8.60;99.90;;;;;;4991699;28;20663;-89
2020/12/24 11:23:50;;;;;;;21.03;13.53;;;8.90;99.90;;;;;;4975523;28;20190;-90
2020/12/24 11:26:23;;;;;;;20.60;13.27;;;8.90;99.90;;;;;;4959203;28;20218;-89
2020/12/24 11:28:50;;;;;;;22.67;13.33;;;8.60;99.90;;;;;;4976543;28;20182;-89
2020/12/24 11:31:23;;;;;;;24.40;13.20;;;9.00;99.90;;;;;;4975425;28;20191;-89
2020/12/24 11:33:51;;;;;;;23.27;14.43;;;8.60;99.90;;;;;;4992078;28;20710;-89
2020/12/24 11:36:17;;;;;;;21.60;13.27;;;8.70;99.90;;;;;;4994556;28;20190;-89
2020/12/24 11:38:59;;;;;;;20.73;12.67;;;8.60;99.90;;;;;;4994628;28;20636;-92
2020/12/24 11:41:27;;;;;;;22.07;13.67;;;8.50;99.90;;;;;;4990901;28;20181;-88
2020/12/24 11:43:55;;;;;;;20.17;12.60;;;8.50;99.90;;;;;;4977361;28;20186;-88
2020/12/24 11:46:26;;;;;;;21.37;12.80;;;8.80;99.90;;;;;;4984085;28;20258;-90
2020/12/24 11:48:53;;;;;;;17.87;11.80;;;9.00;99.90;;;;;;4985211;28;20182;-88
2020/12/24 11:51:20;;;;;;;20.50;11.93;;;8.70;99.90;;;;;;4983474;28;20187;-88
2020/12/24 11:53:48;;;;;;;19.23;12.47;;;8.70;99.90;;;;;;4965012;28;20179;-89
2020/12/24 11:56:19;;;;;;;24.43;13.30;;;8.50;99.90;;;;;;4989416;28;20337;-90
2020/12/24 11:58:47;;;;;;;21.17;12.60;;;8.60;99.90;;;;;;4964340;28;20201;-90
2020/12/24 12:01:18;;;;;;;19.47;12.73;;;8.60;99.90;;;;;;4983564;28;20664;-90
2020/12/24 12:04:10;;;;;;;23.63;13.17;;;8.70;99.90;;;;;;4967483;28;20178;-90
2020/12/24 12:06:35;;;;;;;19.90;12.57;;;7.20;99.90;;;;;;4967160;28;20202;-89
2020/12/24 12:09:01;;;;;;;23.97;13.83;;;8.40;99.90;;;;;;4970742;28;20261;-89
2020/12/24 12:11:27;;;;;;;19.30;13.20;;;8.50;99.90;;;;;;4983094;28;20784;-90
2020/12/24 12:13:58;;;;;;;21.47;13.03;;;7.50;99.90;;;;;;4980349;28;20196;-90
2020/12/24 12:16:26;;;;;;;20.50;13.10;;;8.60;99.90;;;;;;4990231;28;20260;-91
2020/12/24 12:18:52;;;;;;;20.43;12.30;;;8.40;99.90;;;;;;4984333;28;20186;-88
2020/12/24 12:21:21;;;;;;;20.07;12.67;;;8.60;99.90;;;;;;4976874;28;20175;-89
2020/12/24 12:23:47;;;;;;;22.60;13.23;;;8.20;99.90;;;;;;4960893;28;20699;-88
2020/12/24 12:26:13;;;;;;;21.20;13.97;;;8.50;99.90;;;;;;4985678;28;20261;-90
2020/12/24 12:28:43;;;;;;;20.30;12.13;;;8.50;99.90;;;;;;4980635;28;20198;-91
2020/12/24 12:31:23;;;;;;;23.57;14.37;;;8.50;99.90;;;;;;4958110;28;20265;-91
2020/12/24 12:33:50;;;;;;;25.00;14.47;;;8.50;99.90;;;;;;4957765;28;20388;-88
2020/12/24 12:36:18;;;;;;;23.27;13.63;;;8.70;99.90;;;;;;4956896;28;20190;-89
2020/12/24 12:38:47;;;;;;;21.60;13.53;;;8.50;99.90;;;;;;4958291;28;20662;-89
2020/12/24 12:41:17;;;;;;;21.67;12.43;;;8.40;99.90;;;;;;4986199;28;20651;-89
2020/12/24 12:43:43;;;;;;;17.77;11.93;;;8.60;99.90;;;;;;4976694;28;20232;-88
2020/12/24 12:46:09;;;;;;;19.80;12.17;;;8.40;99.90;;;;;;4959004;28;20293;-90
2020/12/24 12:48:36;;;;;;;18.97;12.23;;;8.40;99.90;;;;;;4975068;28;20644;-91
2020/12/24 12:51:02;;;;;;;19.93;12.17;;;8.50;99.90;;;;;;4976492;28;20178;-88
2020/12/24 12:53:28;;;;;;;22.00;11.93;;;8.70;99.90;;;;;;4980178;28;20639;-90
2020/12/24 12:55:54;;;;;;;18.07;11.90;;;8.40;99.90;;;;;;4964532;28;20192;-90
2020/12/24 12:58:22;;;;;;;19.80;11.77;;;8.80;99.90;;;;;;4965414;28;20178;-89
2020/12/24 13:00:48;;;;;;;18.63;11.43;;;8.40;99.90;;;;;;4966003;28;20210;-89